Time;durP1;ratioP1;P1;durP2;ratioP2;P2;SDS_P1;SDS_P2;PMS_P1;PMS_P2;Temp;Humidity;BMP_temperature;BMP_pressure;BME280_temperature;BME280_humidity;BME280_pressure;Samples;Min_cycle;Max_cycle;Signal;HPM_P1;HPM_P2
2022/12/01 00:01:40;;;;;;;4.70;4.20;;;6.70;99.90;;;;;;5049636;28;20378;-73
2022/12/01 00:04:05;;;;;;;5.37;4.47;;;6.70;99.90;;;;;;5048970;28;20370;-72
2022/12/01 00:06:31;;;;;;;5.70;4.57;;;6.50;99.90;;;;;;5049638;28;20377;-74
2022/12/01 00:11:40;;;;;;;5.10;4.60;;;6.60;99.90;;;;;;5050897;28;20392;-74
2022/12/01 00:14:06;;;;;;;4.90;4.40;;;6.60;99.90;;;;;;5052741;28;20398;-74
2022/12/01 00:16:32;;;;;;;5.40;4.53;;;6.60;99.90;;;;;;5053353;28;20377;-74
2022/12/01 00:18:58;;;;;;;5.53;4.82;;;6.50;99.90;;;;;;5035252;28;20489;-75
2022/12/01 00:21:25;;;;;;;5.38;4.53;;;6.50;99.90;;;;;;5053338;28;20927;-74
2022/12/01 00:23:53;;;;;;;6.45;4.90;;;6.60;99.90;;;;;;5052822;28;20400;-74
2022/12/01 00:26:19;;;;;;;5.05;4.50;;;6.60;99.90;;;;;;5053408;28;20401;-75
2022/12/01 00:28:52;;;;;;;5.83;4.60;;;6.70;99.90;;;;;;5053281;28;20864;-74
2022/12/01 00:31:18;;;;;;;5.10;4.38;;;6.60;99.90;;;;;;5053293;28;20392;-75
2022/12/01 00:33:43;;;;;;;5.53;4.13;;;6.90;99.90;;;;;;5034965;28;20389;-75
2022/12/01 00:36:09;;;;;;;4.50;4.10;;;6.80;99.90;;;;;;5053437;28;20464;-75
2022/12/01 00:38:34;;;;;;;4.50;4.10;;;6.80;99.90;;;;;;5053108;28;20401;-74
2022/12/01 00:41:01;;;;;;;4.50;3.73;;;6.80;99.90;;;;;;5035773;28;20408;-75
2022/12/01 00:43:26;;;;;;;4.70;4.15;;;6.70;99.90;;;;;;5052397;28;20381;-74
2022/12/01 00:45:52;;;;;;;3.73;3.43;;;6.70;99.90;;;;;;5053509;28;20378;-74
2022/12/01 00:48:17;;;;;;;3.80;3.40;;;6.60;99.90;;;;;;5053037;28;20389;-75
2022/12/01 00:50:43;;;;;;;4.20;3.40;;;6.60;99.90;;;;;;5053126;28;20381;-74
2022/12/01 00:53:09;;;;;;;5.90;3.70;;;6.50;99.90;;;;;;5034399;28;20385;-75
2022/12/01 00:55:34;;;;;;;3.83;3.30;;;6.50;99.90;;;;;;5052991;28;20401;-73
2022/12/01 00:58:00;;;;;;;3.40;3.10;;;6.50;99.90;;;;;;5034475;28;20406;-74
2022/12/01 01:00:26;;;;;;;3.60;3.30;;;6.40;99.90;;;;;;5052921;28;20373;-73
2022/12/01 01:02:51;;;;;;;3.57;3.27;;;6.50;99.90;;;;;;5051920;28;20814;-74
2022/12/01 01:05:17;;;;;;;3.40;3.10;;;6.50;99.90;;;;;;5052601;28;20381;-74
2022/12/01 01:07:42;;;;;;;3.30;3.00;;;6.40;99.90;;;;;;5052625;28;20732;-75
2022/12/01 01:10:08;;;;;;;4.70;3.10;;;6.40;99.90;;;;;;5052453;28;20393;-74
2022/12/01 01:12:34;;;;;;;3.40;3.10;;;6.50;99.90;;;;;;5051678;28;20407;-74
2022/12/01 01:14:59;;;;;;;3.60;3.07;;;6.50;99.90;;;;;;5052656;28;20393;-74
2022/12/01 01:17:25;;;;;;;5.00;3.30;;;6.50;99.90;;;;;;5052427;28;20386;-74
2022/12/01 01:19:52;;;;;;;3.75;3.00;;;6.50;99.90;;;;;;5087798;22;20513;-74
2022/12/01 01:22:17;;;;;;;3.30;3.00;;;6.60;99.90;;;;;;5072156;28;20887;-74
2022/12/01 01:24:43;;;;;;;4.27;3.23;;;6.50;99.90;;;;;;5070833;28;20404;-74
2022/12/01 01:27:08;;;;;;;4.17;3.50;;;6.50;99.90;;;;;;5072590;28;20367;-75
2022/12/01 01:29:35;;;;;;;4.00;3.20;;;6.50;99.90;;;;;;5054489;28;20383;-74
2022/12/01 01:32:00;;;;;;;3.92;3.13;;;6.40;99.90;;;;;;5072282;28;20379;-74
2022/12/01 01:34:26;;;;;;;4.30;3.42;;;6.40;99.90;;;;;;5071609;28;21059;-73
2022/12/01 01:36:51;;;;;;;4.20;3.50;;;6.40;99.90;;;;;;5072293;28;20372;-74
2022/12/01 01:39:17;;;;;;;3.80;3.40;;;6.40;99.90;;;;;;5071977;28;20404;-75
2022/12/01 01:41:42;;;;;;;4.40;3.60;;;6.50;99.90;;;;;;5072266;28;20392;-74
2022/12/01 01:44:46;;;;;;;4.10;3.30;;;6.60;99.90;;;;;;5071333;28;20376;-74
2022/12/01 01:47:13;;;;;;;4.82;3.90;;;6.60;99.90;;;;;;5071945;28;20387;-74
2022/12/01 01:49:40;;;;;;;4.10;3.70;;;6.50;99.90;;;;;;5071885;28;20444;-74
2022/12/01 01:52:05;;;;;;;5.90;4.10;;;6.50;99.90;;;;;;5071855;28;20383;-75
2022/12/01 01:54:36;;;;;;;3.70;3.40;;;6.60;99.90;;;;;;5071292;28;20416;-74
2022/12/01 01:57:05;;;;;;;4.47;3.33;;;6.60;99.90;;;;;;5071856;28;20874;-75
2022/12/01 01:59:48;;;;;;;4.05;3.65;;;6.60;99.90;;;;;;5071709;28;20402;-74
2022/12/01 02:02:14;;;;;;;3.90;3.50;;;6.40;99.90;;;;;;5071448;28;20463;-74
2022/12/01 02:04:44;;;;;;;3.87;3.57;;;6.50;99.90;;;;;;5070981;28;20471;-75
2022/12/01 02:07:12;;;;;;;4.68;3.80;;;6.50;99.90;;;;;;5053692;28;20390;-75
2022/12/01 02:09:37;;;;;;;4.50;3.88;;;6.50;99.90;;;;;;5071481;28;20396;-74
2022/12/01 02:12:11;;;;;;;4.90;3.50;;;6.50;99.90;;;;;;5071704;28;20882;-75
2022/12/01 02:15:15;;;;;;;6.45;4.60;;;6.50;99.90;;;;;;5052891;28;20428;-75
2022/12/01 02:17:56;;;;;;;7.20;6.50;;;6.50;99.90;;;;;;5020463;28;20735;-74
2022/12/01 02:20:51;;;;;;;8.35;7.53;;;6.50;99.90;;;;;;5071296;28;20453;-76
2022/12/01 02:23:38;;;;;;;10.15;9.05;;;6.50;99.90;;;;;;5048557;28;20406;-74
2022/12/01 02:26:34;;;;;;;11.00;8.25;;;6.50;99.90;;;;;;5053001;28;20481;-74
2022/12/01 02:29:45;;;;;;;11.07;9.30;;;6.50;99.90;;;;;;5053004;28;20395;-74
2022/12/01 02:32:17;;;;;;;11.30;9.90;;;6.40;99.90;;;;;;5053150;28;20456;-74
2022/12/01 02:34:53;;;;;;;12.75;9.95;;;6.40;99.90;;;;;;5069997;28;20490;-75
2022/12/01 02:37:41;;;;;;;13.50;10.88;;;6.30;99.90;;;;;;5071153;28;20475;-74
2022/12/01 02:40:13;;;;;;;12.52;10.90;;;6.40;99.90;;;;;;5071073;28;20440;-74
2022/12/01 02:42:58;;;;;;;13.65;11.05;;;6.40;99.90;;;;;;5070201;28;20379;-74
2022/12/01 02:45:38;;;;;;;13.23;10.90;;;6.30;99.90;;;;;;5053168;28;20380;-74
2022/12/01 02:48:12;;;;;;;13.70;10.93;;;6.40;99.90;;;;;;5070775;28;20461;-74
2022/12/01 02:50:39;;;;;;;14.77;11.65;;;6.40;99.90;;;;;;5053073;28;20472;-73
2022/12/01 02:53:07;;;;;;;13.30;11.45;;;6.30;99.90;;;;;;5070037;28;20407;-74
2022/12/01 02:55:32;;;;;;;13.30;10.73;;;6.10;99.90;;;;;;5052827;28;20953;-74
2022/12/01 02:57:58;;;;;;;13.98;11.18;;;6.20;99.90;;;;;;5070752;28;20471;-73
2022/12/01 03:00:24;;;;;;;14.00;10.93;;;6.20;99.90;;;;;;5070634;28;20382;-73
2022/12/01 03:03:24;;;;;;;15.27;11.38;;;6.10;99.90;;;;;;5069859;28;20737;-75
2022/12/01 03:05:57;;;;;;;14.63;11.15;;;5.90;99.90;;;;;;5069514;28;20383;-74
2022/12/01 03:08:30;;;;;;;15.73;11.90;;;5.90;99.90;;;;;;5070592;28;20741;-74
2022/12/01 03:10:58;;;;;;;15.05;11.93;;;5.80;99.90;;;;;;5070726;28;20738;-74
2022/12/01 03:14:08;;;;;;;16.23;12.30;;;5.90;99.90;;;;;;5051873;28;20755;-74
2022/12/01 03:16:50;;;;;;;15.45;11.60;;;5.90;99.90;;;;;;5065725;28;20406;-77
2022/12/01 03:19:30;;;;;;;14.15;11.63;;;5.80;99.90;;;;;;5070186;28;20411;-74
2022/12/01 03:22:15;;;;;;;14.52;11.57;;;5.80;99.90;;;;;;5070578;28;20463;-75
2022/12/01 03:24:46;;;;;;;15.88;11.88;;;5.90;99.90;;;;;;5069658;28;20380;-74
2022/12/01 03:27:14;;;;;;;14.23;11.70;;;5.90;99.90;;;;;;5070617;28;20484;-75
2022/12/01 03:29:45;;;;;;;16.30;12.30;;;5.80;99.90;;;;;;5070501;28;20391;-75
2022/12/01 03:32:24;;;;;;;14.43;11.30;;;5.70;99.90;;;;;;5070598;28;20383;-74
2022/12/01 03:35:04;;;;;;;17.42;11.98;;;5.70;99.90;;;;;;5069980;28;20375;-74
2022/12/01 03:37:52;;;;;;;16.37;11.50;;;5.60;99.90;;;;;;5071199;28;20380;-74
2022/12/01 03:40:24;;;;;;;15.13;11.00;;;5.70;99.90;;;;;;5070683;28;20383;-74
2022/12/01 03:43:16;;;;;;;18.70;11.63;;;5.60;99.90;;;;;;5051857;28;20408;-74
2022/12/01 03:45:57;;;;;;;16.80;12.00;;;5.60;99.90;;;;;;5061823;28;20390;-74
2022/12/01 03:48:23;;;;;;;16.35;12.13;;;5.60;99.90;;;;;;5074362;28;20866;-74
2022/12/01 03:51:17;;;;;;;18.00;12.00;;;5.40;99.90;;;;;;5056378;28;20406;-74
2022/12/01 03:54:07;;;;;;;15.23;11.10;;;5.60;99.90;;;;;;5073626;28;20448;-76
2022/12/01 03:56:39;;;;;;;15.87;11.67;;;5.80;99.90;;;;;;5074295;28;20473;-77
2022/12/01 03:59:08;;;;;;;13.80;10.32;;;5.70;99.90;;;;;;5073993;28;20407;-76
2022/12/01 04:01:34;;;;;;;14.60;11.00;;;5.60;99.90;;;;;;5074140;28;20466;-75
2022/12/01 04:04:08;;;;;;;18.35;11.90;;;5.50;99.90;;;;;;5073320;28;20387;-74
2022/12/01 04:06:34;;;;;;;13.10;10.52;;;5.60;99.90;;;;;;5074227;28;20742;-74
2022/12/01 04:09:00;;;;;;;17.17;11.97;;;5.70;99.90;;;;;;5073805;28;20896;-74
2022/12/01 04:14:10;;;;;;;16.30;11.45;;;5.60;99.90;;;;;;5072223;28;20381;-74
2022/12/01 04:16:35;;;;;;;13.93;10.50;;;5.50;99.90;;;;;;5073786;28;20387;-74
2022/12/01 04:19:01;;;;;;;15.53;11.70;;;5.50;99.90;;;;;;5073337;28;20461;-75
2022/12/01 04:21:27;;;;;;;16.10;11.27;;;5.60;99.90;;;;;;5073707;28;20376;-74
2022/12/01 04:24:01;;;;;;;15.83;11.07;;;5.80;99.90;;;;;;5072948;28;20746;-74
2022/12/01 04:26:35;;;;;;;14.38;10.40;;;5.80;99.90;;;;;;5055704;28;20398;-75
2022/12/01 04:29:04;;;;;;;14.07;10.07;;;5.70;99.90;;;;;;5073391;28;20383;-74
2022/12/01 04:31:30;;;;;;;14.43;10.75;;;5.80;99.90;;;;;;5055625;28;20394;-74
2022/12/01 04:33:57;;;;;;;14.85;10.55;;;5.80;99.90;;;;;;5072701;28;20466;-75
2022/12/01 04:36:24;;;;;;;14.02;10.10;;;5.60;99.90;;;;;;5073477;28;20383;-74
2022/12/01 04:38:49;;;;;;;11.60;9.63;;;5.70;99.90;;;;;;5055292;28;20399;-74
2022/12/01 04:41:15;;;;;;;14.73;10.68;;;5.70;99.90;;;;;;5073271;28;20395;-74
2022/12/01 04:43:41;;;;;;;15.47;10.70;;;5.70;99.90;;;;;;5072479;28;20739;-74
2022/12/01 04:46:07;;;;;;;14.35;10.60;;;5.80;99.90;;;;;;5073198;28;20380;-74
2022/12/01 04:48:34;;;;;;;14.03;9.93;;;5.60;99.90;;;;;;5055208;28;20391;-74
2022/12/01 04:51:00;;;;;;;13.90;9.63;;;5.50;99.90;;;;;;5073116;28;20761;-74
2022/12/01 04:53:26;;;;;;;13.73;10.10;;;5.40;99.90;;;;;;5054153;28;20395;-75
2022/12/01 04:55:52;;;;;;;14.35;10.60;;;5.40;99.90;;;;;;5072897;28;20384;-74
2022/12/01 04:58:17;;;;;;;13.45;10.25;;;5.50;99.90;;;;;;5072704;28;20399;-74
2022/12/01 05:00:43;;;;;;;14.17;10.00;;;5.40;99.90;;;;;;5072931;28;20375;-74
2022/12/01 05:03:08;;;;;;;18.20;11.30;;;5.40;99.90;;;;;;5072226;28;20760;-75
2022/12/01 05:05:34;;;;;;;15.83;9.97;;;5.50;99.90;;;;;;5072842;28;20388;-74
2022/12/01 05:07:59;;;;;;;14.03;10.27;;;5.40;99.90;;;;;;5072597;28;20376;-74
2022/12/01 05:10:25;;;;;;;16.70;10.30;;;5.40;99.90;;;;;;5072617;28;20438;-74
2022/12/01 05:12:51;;;;;;;17.40;11.57;;;5.30;99.90;;;;;;5072058;28;20462;-74
2022/12/01 05:15:16;;;;;;;16.57;10.80;;;5.30;99.90;;;;;;5072878;28;20380;-74
2022/12/01 05:17:42;;;;;;;14.93;10.10;;;5.50;99.90;;;;;;5072733;28;20371;-74
2022/12/01 05:22:58;;;;;;;16.83;10.40;;;5.30;99.90;;;;;;5071867;28;20367;-74
2022/12/01 05:25:23;;;;;;;17.42;10.63;;;5.40;99.90;;;;;;5072404;28;20380;-74
2022/12/01 05:27:49;;;;;;;14.43;9.93;;;5.40;99.90;;;;;;5072470;28;20394;-74
2022/12/01 05:30:15;;;;;;;15.02;11.75;;;5.40;99.90;;;;;;5072372;28;20387;-74
2022/12/01 05:32:40;;;;;;;14.63;10.43;;;5.30;99.90;;;;;;5069355;28;20419;-74
2022/12/01 05:35:06;;;;;;;12.50;9.32;;;5.30;99.90;;;;;;5072261;28;20387;-74
2022/12/01 05:37:33;;;;;;;13.73;9.40;;;5.40;99.90;;;;;;5072355;28;20416;-75
2022/12/01 05:39:59;;;;;;;12.60;8.77;;;5.50;99.90;;;;;;5072031;28;20454;-74
2022/12/01 05:42:25;;;;;;;11.35;8.63;;;5.50;99.90;;;;;;5071777;28;20380;-74
2022/12/01 05:44:50;;;;;;;11.47;8.97;;;5.60;99.90;;;;;;5071701;28;20387;-74
2022/12/01 05:47:16;;;;;;;11.90;8.83;;;5.50;99.90;;;;;;5071780;28;20432;-74
2022/12/01 05:49:41;;;;;;;13.87;9.63;;;5.40;99.90;;;;;;5072220;28;20866;-74
2022/12/01 05:52:07;;;;;;;14.33;10.57;;;5.50;99.90;;;;;;5071978;28;20380;-75
2022/12/01 05:54:32;;;;;;;14.38;10.68;;;5.50;99.90;;;;;;5071161;28;20384;-74
2022/12/01 05:56:58;;;;;;;15.50;10.80;;;5.50;99.90;;;;;;5071895;28;20379;-73
2022/12/01 05:59:24;;;;;;;12.63;9.20;;;5.50;99.90;;;;;;5071837;28;20411;-75
2022/12/01 06:01:49;;;;;;;12.88;9.35;;;5.50;99.90;;;;;;5069976;28;20411;-74
2022/12/01 06:04:15;;;;;;;12.02;9.00;;;5.40;99.90;;;;;;5071001;28;20383;-74
2022/12/01 06:06:40;;;;;;;12.00;8.80;;;5.40;99.90;;;;;;5071476;28;20391;-74
2022/12/01 06:09:07;;;;;;;11.90;8.30;;;5.30;99.90;;;;;;5070833;28;20392;-74
2022/12/01 06:11:33;;;;;;;12.07;8.00;;;5.50;99.90;;;;;;5070344;28;20371;-74
2022/12/01 06:13:58;;;;;;;10.10;7.75;;;5.40;99.90;;;;;;5070770;28;20967;-74
2022/12/01 06:16:24;;;;;;;9.43;7.60;;;5.30;99.90;;;;;;5071363;28;20808;-74
2022/12/01 06:18:49;;;;;;;10.40;8.30;;;5.20;99.90;;;;;;5071223;28;20404;-75
2022/12/01 06:21:15;;;;;;;12.90;8.17;;;5.20;99.90;;;;;;5071360;28;20388;-75
2022/12/01 06:23:40;;;;;;;11.20;7.90;;;5.20;99.90;;;;;;5070524;28;20384;-75
2022/12/01 06:26:06;;;;;;;12.67;8.40;;;5.30;99.90;;;;;;5053142;28;20411;-75
2022/12/01 06:28:31;;;;;;;9.30;7.50;;;5.20;99.90;;;;;;5065517;28;20391;-74
2022/12/01 06:30:57;;;;;;;10.70;8.67;;;5.20;99.90;;;;;;5070890;28;20438;-75
2022/12/01 06:33:22;;;;;;;11.30;8.00;;;5.10;99.90;;;;;;5059448;28;20392;-74
2022/12/01 06:35:48;;;;;;;13.27;9.30;;;5.10;99.90;;;;;;5054142;28;20410;-74
2022/12/01 06:38:13;;;;;;;10.18;8.20;;;5.40;99.90;;;;;;5069518;28;20793;-74
2022/12/01 06:40:39;;;;;;;11.57;8.48;;;5.10;99.90;;;;;;5049242;28;20394;-74
2022/12/01 06:43:05;;;;;;;11.68;8.88;;;5.10;99.90;;;;;;5065817;28;20394;-74
2022/12/01 06:45:31;;;;;;;10.85;8.50;;;5.10;99.90;;;;;;5050871;28;20440;-74
2022/12/01 06:47:56;;;;;;;11.88;8.07;;;5.20;99.90;;;;;;5050739;28;20381;-74
2022/12/01 06:50:23;;;;;;;14.43;8.93;;;5.20;99.90;;;;;;5050838;28;20405;-74
2022/12/01 06:52:49;;;;;;;11.20;8.40;;;5.30;99.90;;;;;;5051371;28;20381;-75
2022/12/01 06:55:15;;;;;;;11.75;8.88;;;5.00;99.90;;;;;;5069143;28;20383;-75
2022/12/01 06:57:42;;;;;;;10.90;8.65;;;5.10;99.90;;;;;;5050678;28;20423;-75
2022/12/01 07:00:08;;;;;;;12.25;9.18;;;5.10;99.90;;;;;;5053519;28;20488;-74
2022/12/01 07:02:34;;;;;;;11.73;8.00;;;5.00;99.90;;;;;;5069574;28;20390;-74
2022/12/01 07:05:00;;;;;;;12.25;8.30;;;5.00;99.90;;;;;;5062828;28;20442;-74
2022/12/01 07:07:26;;;;;;;10.30;8.73;;;5.10;99.90;;;;;;5055840;28;20777;-75
2022/12/01 07:09:51;;;;;;;10.30;8.30;;;5.00;99.90;;;;;;5070088;28;20475;-74
2022/12/01 07:12:17;;;;;;;11.43;8.57;;;5.20;99.90;;;;;;5062009;28;20877;-75
2022/12/01 07:14:42;;;;;;;11.50;8.77;;;5.10;99.90;;;;;;5069743;28;20754;-75
2022/12/01 07:17:08;;;;;;;12.60;9.10;;;5.10;99.90;;;;;;5068608;28;20391;-75
2022/12/01 07:19:34;;;;;;;11.32;8.80;;;5.40;99.90;;;;;;5090396;22;20488;-76
2022/12/01 07:22:00;;;;;;;12.70;8.80;;;5.30;99.90;;;;;;5086196;28;20398;-75
2022/12/01 07:24:25;;;;;;;13.83;9.70;;;5.20;99.90;;;;;;5089552;28;20378;-74
2022/12/01 07:26:51;;;;;;;13.17;9.90;;;5.20;99.90;;;;;;5082038;28;20907;-74
2022/12/01 07:29:17;;;;;;;12.77;9.97;;;5.20;99.90;;;;;;5090382;28;20370;-76
2022/12/01 07:31:42;;;;;;;14.13;9.90;;;5.40;99.90;;;;;;5090525;28;20373;-74
2022/12/01 07:34:11;;;;;;;12.30;9.07;;;5.40;99.90;;;;;;5086428;28;20378;-75
2022/12/01 07:36:37;;;;;;;12.97;9.07;;;5.40;99.90;;;;;;5082933;28;20370;-75
2022/12/01 07:39:06;;;;;;;10.60;8.90;;;5.20;99.90;;;;;;5081316;28;20773;-74
2022/12/01 07:41:33;;;;;;;11.60;8.93;;;5.20;99.90;;;;;;5070060;28;20392;-74
2022/12/01 07:43:59;;;;;;;13.30;9.60;;;5.20;99.90;;;;;;5069493;28;20379;-75
2022/12/01 07:46:26;;;;;;;11.80;9.05;;;5.10;99.90;;;;;;5070349;28;20380;-75
2022/12/01 07:48:53;;;;;;;11.73;9.52;;;5.20;99.90;;;;;;5078589;28;20397;-74
2022/12/01 07:51:19;;;;;;;13.23;9.43;;;5.30;99.90;;;;;;5090147;28;20412;-74
2022/12/01 07:53:46;;;;;;;12.10;9.68;;;5.30;99.90;;;;;;5089626;28;20382;-74
2022/12/01 07:56:12;;;;;;;14.13;9.70;;;5.30;99.90;;;;;;5089979;28;20382;-75
2022/12/01 07:58:38;;;;;;;11.20;9.00;;;5.40;99.90;;;;;;5090038;28;20439;-74
2022/12/01 08:01:33;;;;;;;11.53;9.20;;;5.30;99.90;;;;;;5090196;28;20390;-74
2022/12/01 08:03:59;;;;;;;10.68;8.60;;;5.40;99.90;;;;;;5067648;28;20385;-74
2022/12/01 08:06:25;;;;;;;10.13;9.00;;;5.40;99.90;;;;;;5090081;28;20380;-74
2022/12/01 08:08:51;;;;;;;11.00;8.90;;;5.40;99.90;;;;;;5071831;28;20420;-75
2022/12/01 08:11:30;;;;;;;11.93;8.90;;;5.50;99.90;;;;;;5071902;28;20386;-75
2022/12/01 08:13:56;;;;;;;10.13;8.55;;;5.40;99.90;;;;;;5089148;28;20868;-75
2022/12/01 08:16:23;;;;;;;12.27;9.10;;;5.40;99.90;;;;;;5090078;28;20397;-75
2022/12/01 08:18:49;;;;;;;10.90;9.02;;;5.50;99.90;;;;;;5089658;28;20487;-74
2022/12/01 08:21:17;;;;;;;11.43;9.30;;;5.40;99.90;;;;;;5090142;28;20382;-75
2022/12/01 08:23:43;;;;;;;11.57;9.88;;;5.30;99.90;;;;;;5089022;28;20844;-75
2022/12/01 08:26:15;;;;;;;11.30;8.93;;;5.30;99.90;;;;;;5071941;28;20382;-74
2022/12/01 08:28:42;;;;;;;11.25;8.75;;;5.40;99.90;;;;;;5090106;28;20881;-75
2022/12/01 08:31:10;;;;;;;11.73;9.52;;;5.50;99.90;;;;;;5090170;28;20389;-75
2022/12/01 08:33:37;;;;;;;14.05;10.05;;;5.50;99.90;;;;;;5091820;28;20374;-76
2022/12/01 08:36:04;;;;;;;11.05;9.48;;;5.50;99.90;;;;;;5094084;28;20859;-75
2022/12/01 08:38:31;;;;;;;11.25;9.23;;;5.60;99.90;;;;;;5093585;28;20493;-75
2022/12/01 08:41:02;;;;;;;11.55;9.32;;;5.50;99.90;;;;;;5071729;28;20441;-76
2022/12/01 08:43:28;;;;;;;11.48;9.00;;;5.50;99.90;;;;;;5092519;28;20378;-75
2022/12/01 08:45:57;;;;;;;11.90;9.70;;;5.60;99.90;;;;;;5093357;28;20450;-75
2022/12/01 08:48:23;;;;;;;12.13;9.10;;;5.60;99.90;;;;;;5093682;28;20378;-75
2022/12/01 08:50:48;;;;;;;12.60;9.70;;;5.60;99.90;;;;;;5093414;28;20439;-73
2022/12/01 08:53:14;;;;;;;12.73;10.07;;;5.50;99.90;;;;;;5092717;28;20392;-73
2022/12/01 08:55:39;;;;;;;13.40;10.03;;;5.60;99.90;;;;;;5093271;28;20434;-74
2022/12/01 08:58:05;;;;;;;13.50;10.70;;;5.60;99.90;;;;;;5093277;28;20798;-74
2022/12/01 09:00:30;;;;;;;12.73;10.03;;;5.50;99.90;;;;;;5075022;28;20451;-73
2022/12/01 09:02:56;;;;;;;13.05;10.32;;;5.50;99.90;;;;;;5092293;28;20382;-74
2022/12/01 09:05:21;;;;;;;12.27;9.90;;;5.40;99.90;;;;;;5093078;28;20469;-74
2022/12/01 09:08:29;;;;;;;13.63;10.20;;;5.40;99.90;;;;;;5092881;28;20425;-75
2022/12/01 09:10:32;;;;;;;14.05;10.13;;;5.50;99.90;;;;;;5092676;28;20396;-74
2022/12/01 09:12:58;;;;;;;13.10;10.10;;;5.60;99.90;;;;;;5082207;28;20753;-74
2022/12/01 09:15:23;;;;;;;12.10;9.30;;;5.50;99.90;;;;;;5091951;28;20378;-74
2022/12/01 09:17:49;;;;;;;13.07;10.40;;;5.60;99.90;;;;;;5092605;28;20925;-74
2022/12/01 09:20:14;;;;;;;12.93;9.50;;;5.60;99.90;;;;;;5074155;28;20405;-74
2022/12/01 09:22:40;;;;;;;12.63;10.27;;;5.60;99.90;;;;;;5092163;28;20378;-74
2022/12/01 09:25:13;;;;;;;12.47;10.00;;;5.50;99.90;;;;;;5092812;28;20388;-75
2022/12/01 09:27:39;;;;;;;13.93;10.40;;;5.60;99.90;;;;;;5092857;28;20382;-75
2022/12/01 09:30:05;;;;;;;12.70;9.77;;;5.60;99.90;;;;;;5092711;28;20404;-75
2022/12/01 09:32:30;;;;;;;12.95;9.10;;;5.60;99.90;;;;;;5073722;28;20390;-75
2022/12/01 09:34:56;;;;;;;12.83;9.70;;;5.50;99.90;;;;;;5074259;28;20386;-74
2022/12/01 09:37:21;;;;;;;12.63;9.50;;;5.60;99.90;;;;;;5092415;28;20478;-74
2022/12/01 09:39:47;;;;;;;12.80;9.37;;;5.60;99.90;;;;;;5092348;28;20417;-74
2022/12/01 09:42:16;;;;;;;12.35;9.55;;;5.50;99.90;;;;;;5092361;28;20531;-74
2022/12/01 09:44:47;;;;;;;11.63;9.25;;;5.50;99.90;;;;;;5090590;28;20902;-74
2022/12/01 09:47:32;;;;;;;12.15;10.25;;;5.40;99.90;;;;;;5092394;28;20786;-74
2022/12/01 09:50:03;;;;;;;13.30;10.40;;;5.60;99.90;;;;;;5074474;28;21023;-74
2022/12/01 09:53:09;;;;;;;13.48;10.00;;;5.70;99.90;;;;;;5091710;28;20394;-75
2022/12/01 09:55:35;;;;;;;14.65;10.98;;;5.70;99.90;;;;;;4990300;28;20394;-75
2022/12/01 09:58:02;;;;;;;14.73;10.40;;;5.70;99.90;;;;;;5053041;28;20416;-75
2022/12/01 10:00:34;;;;;;;13.90;9.80;;;5.80;99.90;;;;;;5091431;28;20493;-74
2022/12/01 10:03:12;;;;;;;14.80;10.52;;;5.60;99.90;;;;;;5091253;28;20432;-74
2022/12/01 10:05:54;;;;;;;14.88;11.27;;;5.60;99.90;;;;;;5073748;28;20404;-74
2022/12/01 10:08:24;;;;;;;13.60;9.90;;;5.60;99.90;;;;;;5073752;28;20418;-75
2022/12/01 10:10:53;;;;;;;13.30;10.60;;;5.60;99.90;;;;;;5070274;28;20800;-74
2022/12/01 10:13:20;;;;;;;14.50;10.48;;;5.40;99.90;;;;;;5069453;28;20398;-75
2022/12/01 10:16:10;;;;;;;14.13;10.38;;;5.40;99.90;;;;;;5071696;28;20761;-74
2022/12/01 10:19:04;;;;;;;14.00;10.68;;;5.50;99.90;;;;;;5070020;28;20486;-74
2022/12/01 10:21:46;;;;;;;14.37;11.33;;;5.60;99.90;;;;;;5071441;28;20763;-74
2022/12/01 10:24:38;;;;;;;15.68;10.80;;;5.60;99.90;;;;;;5070733;28;20459;-74
2022/12/01 10:27:24;;;;;;;12.95;10.65;;;5.50;99.90;;;;;;5071195;28;20382;-74
2022/12/01 10:30:04;;;;;;;13.68;10.05;;;5.40;99.90;;;;;;5071178;28;20466;-74
2022/12/01 10:33:03;;;;;;;14.13;10.70;;;5.40;99.90;;;;;;5070757;28;20436;-74
2022/12/01 10:35:35;;;;;;;14.77;10.23;;;5.50;99.90;;;;;;5071199;28;20745;-74
2022/12/01 10:38:05;;;;;;;13.93;10.75;;;5.30;99.90;;;;;;5071025;28;20384;-74
2022/12/01 10:40:34;;;;;;;13.27;10.82;;;5.40;99.90;;;;;;5071090;28;20391;-74
2022/12/01 10:43:00;;;;;;;16.48;11.90;;;5.30;99.90;;;;;;5070273;28;20376;-74
2022/12/01 10:45:28;;;;;;;14.95;10.45;;;5.30;99.90;;;;;;5070976;28;20380;-74
2022/12/01 10:48:06;;;;;;;14.00;10.13;;;5.40;99.90;;;;;;5069921;28;21051;-74
2022/12/01 10:50:33;;;;;;;13.65;10.88;;;5.50;99.90;;;;;;5070762;28;20849;-74
2022/12/01 10:52:59;;;;;;;12.50;10.40;;;5.40;99.90;;;;;;5069204;28;20387;-74
2022/12/01 10:55:36;;;;;;;14.98;10.80;;;5.50;99.90;;;;;;5070494;28;20442;-74
2022/12/01 10:58:12;;;;;;;14.00;10.98;;;5.60;99.90;;;;;;5071151;28;20380;-74
2022/12/01 11:00:39;;;;;;;13.07;10.73;;;5.40;99.90;;;;;;5069735;28;20395;-75
2022/12/01 11:03:05;;;;;;;17.52;10.93;;;5.50;99.90;;;;;;5070344;28;20391;-75
2022/12/01 11:05:37;;;;;;;13.90;10.40;;;5.50;99.90;;;;;;5069279;28;20478;-75
2022/12/01 11:08:03;;;;;;;15.35;10.82;;;5.60;99.90;;;;;;5070594;28;20372;-75
2022/12/01 11:10:34;;;;;;;14.00;10.63;;;5.60;99.90;;;;;;5072477;28;20413;-75
2022/12/01 11:13:21;;;;;;;14.23;9.70;;;5.60;99.90;;;;;;5090059;28;20386;-75
2022/12/01 11:16:00;;;;;;;14.73;10.98;;;5.60;99.90;;;;;;5072935;28;20947;-76
2022/12/01 11:18:34;;;;;;;15.18;10.50;;;5.50;99.90;;;;;;5090535;28;20425;-75
2022/12/01 11:21:05;;;;;;;14.32;10.55;;;5.50;99.90;;;;;;5090407;28;20390;-75
2022/12/01 11:23:30;;;;;;;13.90;10.40;;;5.60;99.90;;;;;;5089792;28;20392;-75
2022/12/01 11:25:59;;;;;;;14.48;10.60;;;5.40;99.90;;;;;;5090660;28;20377;-74
2022/12/01 11:28:25;;;;;;;15.03;10.87;;;5.50;99.90;;;;;;5090632;28;20388;-74
2022/12/01 11:31:03;;;;;;;13.13;9.82;;;5.40;99.90;;;;;;5090572;28;20390;-75
2022/12/01 11:33:32;;;;;;;13.83;10.63;;;5.50;99.90;;;;;;5090124;28;20386;-75
2022/12/01 11:35:58;;;;;;;13.40;9.90;;;5.50;99.90;;;;;;5090907;28;20915;-75
2022/12/01 11:38:31;;;;;;;13.33;10.53;;;5.50;99.90;;;;;;5090454;28;20463;-75
2022/12/01 11:40:57;;;;;;;14.68;10.40;;;5.50;99.90;;;;;;5090412;28;20878;-75
2022/12/01 11:43:37;;;;;;;16.60;11.10;;;5.50;99.90;;;;;;5089738;28;20378;-74
2022/12/01 11:46:06;;;;;;;13.32;10.02;;;5.40;99.90;;;;;;5090431;28;20867;-75
2022/12/01 11:48:34;;;;;;;15.05;11.45;;;5.50;99.90;;;;;;5072158;28;20439;-75
2022/12/01 11:51:18;;;;;;;14.70;11.13;;;5.50;99.90;;;;;;5090254;28;20814;-76
2022/12/01 11:53:44;;;;;;;15.33;10.83;;;5.40;99.90;;;;;;5089638;28;20415;-77
2022/12/01 11:56:27;;;;;;;15.98;11.48;;;5.20;99.90;;;;;;5090190;28;20918;-76
2022/12/01 11:59:15;;;;;;;16.45;11.65;;;5.30;99.90;;;;;;5090112;28;20903;-76
2022/12/01 12:02:02;;;;;;;15.33;10.90;;;5.20;99.90;;;;;;5090626;28;20378;-77
2022/12/01 12:04:39;;;;;;;14.77;10.85;;;5.30;99.90;;;;;;5071612;28;20467;-75
2022/12/01 12:07:14;;;;;;;15.27;11.52;;;5.30;99.90;;;;;;5090660;28;20382;-75
2022/12/01 12:10:04;;;;;;;16.50;11.43;;;5.30;99.90;;;;;;5094061;28;20422;-75
2022/12/01 12:12:45;;;;;;;14.67;10.90;;;5.50;99.90;;;;;;5093826;28;20378;-76
2022/12/01 12:15:37;;;;;;;14.90;11.30;;;5.40;99.90;;;;;;5094563;28;20412;-75
2022/12/01 12:18:11;;;;;;;14.80;10.95;;;5.60;99.90;;;;;;5093977;28;20378;-75
2022/12/01 12:20:53;;;;;;;15.07;10.85;;;5.50;99.90;;;;;;5093798;28;20451;-75
2022/12/01 12:23:57;;;;;;;15.20;10.85;;;5.60;99.90;;;;;;5093261;28;20385;-76
2022/12/01 12:26:27;;;;;;;13.60;10.02;;;5.60;99.90;;;;;;5094002;28;20378;-76
2022/12/01 12:29:16;;;;;;;14.07;9.85;;;5.60;99.90;;;;;;5094992;28;20381;-76
2022/12/01 12:32:10;;;;;;;14.27;10.40;;;5.50;99.90;;;;;;5094001;28;20393;-76
2022/12/01 12:35:02;;;;;;;14.10;10.43;;;5.60;99.90;;;;;;5092924;28;20439;-76
2022/12/01 12:37:36;;;;;;;11.48;9.70;;;5.60;99.90;;;;;;5094051;28;20477;-76
2022/12/01 12:40:24;;;;;;;13.33;9.83;;;5.60;99.90;;;;;;5093552;28;20406;-75
2022/12/01 12:43:13;;;;;;;13.50;9.52;;;5.70;99.90;;;;;;5092824;28;20795;-75
2022/12/01 12:46:00;;;;;;;13.95;10.68;;;5.60;99.90;;;;;;5068048;28;20490;-77
2022/12/01 12:48:35;;;;;;;12.27;9.55;;;5.70;99.90;;;;;;5087368;28;20391;-75
2022/12/01 12:51:12;;;;;;;12.50;9.55;;;5.60;99.90;;;;;;5088980;28;20886;-75
2022/12/01 12:53:50;;;;;;;12.88;9.38;;;5.70;99.90;;;;;;5084101;28;20886;-76
2022/12/01 12:56:19;;;;;;;12.88;9.10;;;5.70;99.90;;;;;;5079299;28;20769;-76
2022/12/01 12:59:01;;;;;;;11.07;8.55;;;5.50;99.90;;;;;;5093026;28;20763;-76
2022/12/01 13:01:38;;;;;;;10.35;8.68;;;5.60;99.90;;;;;;5084694;28;20826;-75
2022/12/01 13:04:15;;;;;;;11.80;9.43;;;5.60;99.90;;;;;;5084224;28;20434;-75
2022/12/01 13:07:07;;;;;;;10.40;8.63;;;5.70;99.90;;;;;;5067915;28;20444;-76
2022/12/01 13:09:41;;;;;;;10.98;8.40;;;5.80;99.90;;;;;;5087710;28;20390;-75
2022/12/01 13:12:08;;;;;;;11.02;8.30;;;5.80;99.90;;;;;;5093011;28;20445;-76